sensor_id;sensor_type;location;lat;lon;timestamp;P1;durP1;ratioP1;P2;durP2;ratioP2
55069;SDS011;40967;52.070;8.596;2024-01-30T00:00:09;6.93;;;3.90;;
55069;SDS011;40967;52.070;8.596;2024-01-30T00:02:36;6.15;;;3.83;;
55069;SDS011;40967;52.070;8.596;2024-01-30T00:05:03;6.35;;;3.78;;
55069;SDS011;40967;52.070;8.596;2024-01-30T00:07:33;6.07;;;3.53;;
55069;SDS011;40967;52.070;8.596;2024-01-30T00:10:00;6.18;;;3.58;;
55069;SDS011;40967;52.070;8.596;2024-01-30T00:12:26;6.32;;;3.53;;
55069;SDS011;40967;52.070;8.596;2024-01-30T00:14:54;6.10;;;3.58;;
55069;SDS011;40967;52.070;8.596;2024-01-30T00:17:21;6.53;;;3.47;;
55069;SDS011;40967;52.070;8.596;2024-01-30T00:19:47;5.55;;;3.38;;
55069;SDS011;40967;52.070;8.596;2024-01-30T00:22:14;6.15;;;3.67;;
55069;SDS011;40967;52.070;8.596;2024-01-30T00:24:41;6.57;;;3.55;;
55069;SDS011;40967;52.070;8.596;2024-01-30T00:27:07;5.72;;;3.58;;
55069;SDS011;40967;52.070;8.596;2024-01-30T00:29:34;6.00;;;3.60;;
55069;SDS011;40967;52.070;8.596;2024-01-30T00:32:02;6.00;;;3.47;;
55069;SDS011;40967;52.070;8.596;2024-01-30T00:34:29;5.85;;;3.13;;
55069;SDS011;40967;52.070;8.596;2024-01-30T00:36:55;6.55;;;3.58;;
55069;SDS011;40967;52.070;8.596;2024-01-30T00:39:22;6.18;;;3.55;;
55069;SDS011;40967;52.070;8.596;2024-01-30T00:41:48;5.40;;;3.20;;
55069;SDS011;40967;52.070;8.596;2024-01-30T00:44:15;5.47;;;3.17;;
55069;SDS011;40967;52.070;8.596;2024-01-30T00:46:42;5.45;;;3.25;;
55069;SDS011;40967;52.070;8.596;2024-01-30T00:49:10;6.07;;;3.15;;
55069;SDS011;40967;52.070;8.596;2024-01-30T00:51:36;6.65;;;3.50;;
55069;SDS011;40967;52.070;8.596;2024-01-30T00:54:03;6.07;;;3.28;;
55069;SDS011;40967;52.070;8.596;2024-01-30T00:56:31;5.93;;;3.40;;
55069;SDS011;40967;52.070;8.596;2024-01-30T00:58:58;5.97;;;3.22;;
55069;SDS011;40967;52.070;8.596;2024-01-30T01:01:25;5.43;;;3.05;;
55069;SDS011;40967;52.070;8.596;2024-01-30T01:03:51;5.88;;;3.50;;
55069;SDS011;40967;52.070;8.596;2024-01-30T01:06:19;5.85;;;3.53;;
55069;SDS011;40967;52.070;8.596;2024-01-30T01:08:46;6.00;;;3.40;;
55069;SDS011;40967;52.070;8.596;2024-01-30T01:11:12;5.73;;;3.27;;
55069;SDS011;40967;52.070;8.596;2024-01-30T01:13:39;5.88;;;3.30;;
55069;SDS011;40967;52.070;8.596;2024-01-30T01:16:06;6.72;;;3.40;;
55069;SDS011;40967;52.070;8.596;2024-01-30T01:18:32;6.25;;;3.60;;
55069;SDS011;40967;52.070;8.596;2024-01-30T01:20:59;5.57;;;3.23;;
55069;SDS011;40967;52.070;8.596;2024-01-30T01:23:27;6.20;;;3.63;;
55069;SDS011;40967;52.070;8.596;2024-01-30T01:25:54;6.53;;;3.53;;
55069;SDS011;40967;52.070;8.596;2024-01-30T01:28:21;5.63;;;3.43;;
55069;SDS011;40967;52.070;8.596;2024-01-30T01:30:48;5.13;;;2.95;;
55069;SDS011;40967;52.070;8.596;2024-01-30T01:33:14;6.47;;;3.50;;
55069;SDS011;40967;52.070;8.596;2024-01-30T01:35:41;6.47;;;3.65;;
55069;SDS011;40967;52.070;8.596;2024-01-30T01:38:07;5.65;;;3.35;;
55069;SDS011;40967;52.070;8.596;2024-01-30T01:40:35;5.95;;;3.50;;
55069;SDS011;40967;52.070;8.596;2024-01-30T01:43:04;5.75;;;3.45;;
55069;SDS011;40967;52.070;8.596;2024-01-30T01:45:31;6.95;;;4.05;;
55069;SDS011;40967;52.070;8.596;2024-01-30T01:47:57;6.80;;;3.80;;
55069;SDS011;40967;52.070;8.596;2024-01-30T01:50:24;5.68;;;3.30;;
55069;SDS011;40967;52.070;8.596;2024-01-30T01:52:51;6.78;;;3.65;;
55069;SDS011;40967;52.070;8.596;2024-01-30T01:55:19;5.72;;;3.40;;
55069;SDS011;40967;52.070;8.596;2024-01-30T01:57:50;6.40;;;3.58;;
55069;SDS011;40967;52.070;8.596;2024-01-30T02:00:19;5.85;;;3.55;;
55069;SDS011;40967;52.070;8.596;2024-01-30T02:02:46;6.18;;;3.58;;
55069;SDS011;40967;52.070;8.596;2024-01-30T02:05:13;6.15;;;3.60;;
55069;SDS011;40967;52.070;8.596;2024-01-30T02:07:40;5.70;;;3.27;;
55069;SDS011;40967;52.070;8.596;2024-01-30T02:10:07;5.35;;;3.30;;
55069;SDS011;40967;52.070;8.596;2024-01-30T02:12:34;6.13;;;3.63;;
55069;SDS011;40967;52.070;8.596;2024-01-30T02:15:03;7.20;;;3.78;;
55069;SDS011;40967;52.070;8.596;2024-01-30T02:17:32;6.40;;;3.60;;
55069;SDS011;40967;52.070;8.596;2024-01-30T02:19:59;6.18;;;3.80;;
55069;SDS011;40967;52.070;8.596;2024-01-30T02:22:27;7.10;;;4.10;;
55069;SDS011;40967;52.070;8.596;2024-01-30T02:24:54;6.95;;;4.20;;
55069;SDS011;40967;52.070;8.596;2024-01-30T02:27:20;6.83;;;3.83;;
55069;SDS011;40967;52.070;8.596;2024-01-30T02:29:47;5.88;;;3.22;;
55069;SDS011;40967;52.070;8.596;2024-01-30T02:32:13;6.23;;;3.53;;
55069;SDS011;40967;52.070;8.596;2024-01-30T02:34:40;6.45;;;3.75;;
55069;SDS011;40967;52.070;8.596;2024-01-30T02:37:06;6.80;;;4.00;;
55069;SDS011;40967;52.070;8.596;2024-01-30T02:39:34;5.80;;;3.70;;
55069;SDS011;40967;52.070;8.596;2024-01-30T02:42:01;5.93;;;3.53;;
55069;SDS011;40967;52.070;8.596;2024-01-30T02:44:27;6.25;;;3.63;;
55069;SDS011;40967;52.070;8.596;2024-01-30T02:46:54;6.50;;;3.58;;
55069;SDS011;40967;52.070;8.596;2024-01-30T02:49:21;5.40;;;3.38;;
55069;SDS011;40967;52.070;8.596;2024-01-30T02:51:47;5.47;;;3.38;;
55069;SDS011;40967;52.070;8.596;2024-01-30T02:54:14;6.35;;;3.60;;
55069;SDS011;40967;52.070;8.596;2024-01-30T02:56:42;5.93;;;3.38;;
55069;SDS011;40967;52.070;8.596;2024-01-30T02:59:08;6.80;;;3.70;;
55069;SDS011;40967;52.070;8.596;2024-01-30T03:01:41;5.90;;;3.55;;
55069;SDS011;40967;52.070;8.596;2024-01-30T03:04:09;5.97;;;3.40;;
55069;SDS011;40967;52.070;8.596;2024-01-30T03:06:35;5.40;;;3.25;;
55069;SDS011;40967;52.070;8.596;2024-01-30T03:09:02;6.00;;;3.65;;
55069;SDS011;40967;52.070;8.596;2024-01-30T03:11:29;6.00;;;3.47;;
55069;SDS011;40967;52.070;8.596;2024-01-30T03:13:57;5.65;;;3.30;;
55069;SDS011;40967;52.070;8.596;2024-01-30T03:16:24;6.30;;;3.55;;
55069;SDS011;40967;52.070;8.596;2024-01-30T03:18:50;6.00;;;3.72;;
55069;SDS011;40967;52.070;8.596;2024-01-30T03:21:17;6.28;;;3.90;;
55069;SDS011;40967;52.070;8.596;2024-01-30T03:23:43;7.57;;;4.30;;
55069;SDS011;40967;52.070;8.596;2024-01-30T03:26:10;6.88;;;3.90;;
55069;SDS011;40967;52.070;8.596;2024-01-30T03:28:37;7.03;;;4.07;;
55069;SDS011;40967;52.070;8.596;2024-01-30T03:31:05;6.73;;;4.00;;
55069;SDS011;40967;52.070;8.596;2024-01-30T03:33:32;6.78;;;3.97;;
55069;SDS011;40967;52.070;8.596;2024-01-30T03:36:02;6.40;;;3.73;;
55069;SDS011;40967;52.070;8.596;2024-01-30T03:38:29;5.75;;;3.60;;
55069;SDS011;40967;52.070;8.596;2024-01-30T03:40:57;6.50;;;3.70;;
55069;SDS011;40967;52.070;8.596;2024-01-30T03:43:24;5.80;;;3.33;;
55069;SDS011;40967;52.070;8.596;2024-01-30T03:45:51;5.60;;;3.22;;
55069;SDS011;40967;52.070;8.596;2024-01-30T03:48:19;6.00;;;3.60;;
55069;SDS011;40967;52.070;8.596;2024-01-30T03:50:47;6.15;;;3.40;;
55069;SDS011;40967;52.070;8.596;2024-01-30T03:53:13;5.88;;;3.70;;
55069;SDS011;40967;52.070;8.596;2024-01-30T03:55:40;7.20;;;3.80;;
55069;SDS011;40967;52.070;8.596;2024-01-30T03:58:07;7.70;;;4.25;;
55069;SDS011;40967;52.070;8.596;2024-01-30T04:00:33;6.75;;;3.92;;
55069;SDS011;40967;52.070;8.596;2024-01-30T04:03:00;8.32;;;4.18;;
55069;SDS011;40967;52.070;8.596;2024-01-30T04:05:28;5.70;;;3.45;;
55069;SDS011;40967;52.070;8.596;2024-01-30T04:07:54;6.90;;;4.00;;
55069;SDS011;40967;52.070;8.596;2024-01-30T04:10:21;6.50;;;3.92;;
55069;SDS011;40967;52.070;8.596;2024-01-30T04:12:48;6.17;;;3.77;;
55069;SDS011;40967;52.070;8.596;2024-01-30T04:15:14;7.03;;;3.83;;
55069;SDS011;40967;52.070;8.596;2024-01-30T04:17:41;5.57;;;3.47;;
55069;SDS011;40967;52.070;8.596;2024-01-30T04:20:09;6.23;;;3.87;;
55069;SDS011;40967;52.070;8.596;2024-01-30T04:22:41;5.65;;;3.63;;
55069;SDS011;40967;52.070;8.596;2024-01-30T04:25:08;6.80;;;4.20;;
55069;SDS011;40967;52.070;8.596;2024-01-30T04:27:34;7.07;;;3.77;;
55069;SDS011;40967;52.070;8.596;2024-01-30T04:30:01;7.50;;;4.40;;
55069;SDS011;40967;52.070;8.596;2024-01-30T04:32:27;7.33;;;4.10;;
55069;SDS011;40967;52.070;8.596;2024-01-30T04:34:54;8.43;;;4.38;;
55069;SDS011;40967;52.070;8.596;2024-01-30T04:37:21;6.90;;;4.32;;
55069;SDS011;40967;52.070;8.596;2024-01-30T04:39:49;7.28;;;4.35;;
55069;SDS011;40967;52.070;8.596;2024-01-30T04:42:16;7.63;;;4.53;;
55069;SDS011;40967;52.070;8.596;2024-01-30T04:44:42;7.72;;;4.43;;
55069;SDS011;40967;52.070;8.596;2024-01-30T04:47:09;7.38;;;4.57;;
55069;SDS011;40967;52.070;8.596;2024-01-30T04:49:37;6.70;;;4.20;;
55069;SDS011;40967;52.070;8.596;2024-01-30T04:52:04;6.82;;;4.40;;
55069;SDS011;40967;52.070;8.596;2024-01-30T04:54:31;7.30;;;4.30;;
55069;SDS011;40967;52.070;8.596;2024-01-30T04:56:59;8.63;;;4.68;;
55069;SDS011;40967;52.070;8.596;2024-01-30T04:59:26;7.37;;;4.60;;
55069;SDS011;40967;52.070;8.596;2024-01-30T05:01:52;6.97;;;4.30;;
55069;SDS011;40967;52.070;8.596;2024-01-30T05:04:19;7.10;;;4.30;;
55069;SDS011;40967;52.070;8.596;2024-01-30T05:06:47;7.47;;;4.45;;
55069;SDS011;40967;52.070;8.596;2024-01-30T05:09:13;8.03;;;5.03;;
55069;SDS011;40967;52.070;8.596;2024-01-30T05:11:40;8.30;;;4.63;;
55069;SDS011;40967;52.070;8.596;2024-01-30T05:14:08;7.38;;;4.53;;
55069;SDS011;40967;52.070;8.596;2024-01-30T05:16:36;7.70;;;4.82;;
55069;SDS011;40967;52.070;8.596;2024-01-30T05:19:03;7.45;;;4.60;;
55069;SDS011;40967;52.070;8.596;2024-01-30T05:21:30;6.73;;;4.03;;
55069;SDS011;40967;52.070;8.596;2024-01-30T05:23:56;7.40;;;4.43;;
55069;SDS011;40967;52.070;8.596;2024-01-30T05:26:23;7.45;;;4.38;;
55069;SDS011;40967;52.070;8.596;2024-01-30T05:28:49;8.00;;;5.03;;
55069;SDS011;40967;52.070;8.596;2024-01-30T05:31:19;7.45;;;4.40;;
55069;SDS011;40967;52.070;8.596;2024-01-30T05:33:46;7.78;;;4.65;;
55069;SDS011;40967;52.070;8.596;2024-01-30T05:36:12;7.50;;;4.80;;
55069;SDS011;40967;52.070;8.596;2024-01-30T05:38:39;7.63;;;4.35;;
55069;SDS011;40967;52.070;8.596;2024-01-30T05:41:06;8.18;;;4.70;;
55069;SDS011;40967;52.070;8.596;2024-01-30T05:43:33;8.02;;;4.95;;
55069;SDS011;40967;52.070;8.596;2024-01-30T05:46:00;8.07;;;4.88;;
55069;SDS011;40967;52.070;8.596;2024-01-30T05:48:27;7.38;;;4.60;;
55069;SDS011;40967;52.070;8.596;2024-01-30T05:50:54;7.83;;;4.87;;
55069;SDS011;40967;52.070;8.596;2024-01-30T05:53:21;7.55;;;4.68;;
55069;SDS011;40967;52.070;8.596;2024-01-30T05:55:48;8.52;;;4.72;;
55069;SDS011;40967;52.070;8.596;2024-01-30T05:58:14;7.70;;;4.63;;
55069;SDS011;40967;52.070;8.596;2024-01-30T06:00:41;7.63;;;4.57;;
55069;SDS011;40967;52.070;8.596;2024-01-30T06:03:07;7.40;;;4.60;;
55069;SDS011;40967;52.070;8.596;2024-01-30T06:05:37;7.03;;;4.30;;
55069;SDS011;40967;52.070;8.596;2024-01-30T06:08:06;7.68;;;4.70;;
55069;SDS011;40967;52.070;8.596;2024-01-30T06:10:33;7.50;;;4.50;;
55069;SDS011;40967;52.070;8.596;2024-01-30T06:12:59;7.38;;;4.38;;
55069;SDS011;40967;52.070;8.596;2024-01-30T06:15:26;7.43;;;4.30;;
55069;SDS011;40967;52.070;8.596;2024-01-30T06:17:54;7.45;;;4.32;;
55069;SDS011;40967;52.070;8.596;2024-01-30T06:20:21;7.85;;;4.22;;
55069;SDS011;40967;52.070;8.596;2024-01-30T06:22:49;7.57;;;4.43;;
55069;SDS011;40967;52.070;8.596;2024-01-30T06:25:15;7.10;;;4.20;;
55069;SDS011;40967;52.070;8.596;2024-01-30T06:27:42;7.00;;;4.03;;
55069;SDS011;40967;52.070;8.596;2024-01-30T06:30:09;8.63;;;4.40;;
55069;SDS011;40967;52.070;8.596;2024-01-30T06:32:36;7.57;;;4.25;;
55069;SDS011;40967;52.070;8.596;2024-01-30T06:35:04;6.68;;;4.13;;
55069;SDS011;40967;52.070;8.596;2024-01-30T06:37:31;8.25;;;4.70;;
55069;SDS011;40967;52.070;8.596;2024-01-30T06:39:59;6.85;;;4.07;;
55069;SDS011;40967;52.070;8.596;2024-01-30T06:42:26;7.47;;;4.10;;
55069;SDS011;40967;52.070;8.596;2024-01-30T06:44:52;6.63;;;4.00;;
55069;SDS011;40967;52.070;8.596;2024-01-30T06:47:19;6.95;;;4.25;;
55069;SDS011;40967;52.070;8.596;2024-01-30T06:49:48;7.75;;;4.50;;
55069;SDS011;40967;52.070;8.596;2024-01-30T06:52:15;7.35;;;4.65;;
55069;SDS011;40967;52.070;8.596;2024-01-30T06:54:43;7.30;;;4.40;;
55069;SDS011;40967;52.070;8.596;2024-01-30T06:57:14;7.75;;;4.45;;
55069;SDS011;40967;52.070;8.596;2024-01-30T06:59:40;7.03;;;4.40;;
55069;SDS011;40967;52.070;8.596;2024-01-30T07:02:10;6.85;;;4.07;;
55069;SDS011;40967;52.070;8.596;2024-01-30T07:04:37;7.93;;;4.63;;
55069;SDS011;40967;52.070;8.596;2024-01-30T07:07:04;8.02;;;4.43;;
55069;SDS011;40967;52.070;8.596;2024-01-30T07:09:36;7.27;;;4.50;;
55069;SDS011;40967;52.070;8.596;2024-01-30T07:12:03;7.95;;;4.40;;
55069;SDS011;40967;52.070;8.596;2024-01-30T07:14:32;6.90;;;4.20;;
55069;SDS011;40967;52.070;8.596;2024-01-30T07:16:59;7.20;;;4.27;;
55069;SDS011;40967;52.070;8.596;2024-01-30T07:19:25;7.32;;;4.60;;
55069;SDS011;40967;52.070;8.596;2024-01-30T07:21:52;6.57;;;3.90;;
55069;SDS011;40967;52.070;8.596;2024-01-30T07:24:27;7.60;;;4.53;;
55069;SDS011;40967;52.070;8.596;2024-01-30T07:26:53;6.95;;;4.43;;
55069;SDS011;40967;52.070;8.596;2024-01-30T07:29:20;7.25;;;4.35;;
55069;SDS011;40967;52.070;8.596;2024-01-30T07:31:50;7.22;;;4.30;;
55069;SDS011;40967;52.070;8.596;2024-01-30T07:34:17;7.80;;;4.55;;
55069;SDS011;40967;52.070;8.596;2024-01-30T07:36:45;6.95;;;4.20;;
55069;SDS011;40967;52.070;8.596;2024-01-30T07:39:13;7.55;;;4.63;;
55069;SDS011;40967;52.070;8.596;2024-01-30T07:41:43;7.10;;;4.20;;
55069;SDS011;40967;52.070;8.596;2024-01-30T07:44:11;6.50;;;4.07;;
55069;SDS011;40967;52.070;8.596;2024-01-30T07:46:38;6.97;;;4.40;;
55069;SDS011;40967;52.070;8.596;2024-01-30T07:49:06;7.07;;;4.70;;
55069;SDS011;40967;52.070;8.596;2024-01-30T07:51:32;7.68;;;4.82;;
55069;SDS011;40967;52.070;8.596;2024-01-30T07:53:59;7.50;;;4.45;;
55069;SDS011;40967;52.070;8.596;2024-01-30T07:56:28;7.25;;;4.53;;
55069;SDS011;40967;52.070;8.596;2024-01-30T07:58:55;6.97;;;4.33;;
55069;SDS011;40967;52.070;8.596;2024-01-30T08:01:21;7.35;;;4.53;;
55069;SDS011;40967;52.070;8.596;2024-01-30T08:03:48;7.85;;;4.95;;
55069;SDS011;40967;52.070;8.596;2024-01-30T08:06:18;7.45;;;4.70;;
55069;SDS011;40967;52.070;8.596;2024-01-30T08:08:45;7.53;;;4.47;;
55069;SDS011;40967;52.070;8.596;2024-01-30T08:11:11;7.40;;;4.75;;
55069;SDS011;40967;52.070;8.596;2024-01-30T08:13:38;8.17;;;4.83;;
55069;SDS011;40967;52.070;8.596;2024-01-30T08:16:05;8.40;;;4.70;;
55069;SDS011;40967;52.070;8.596;2024-01-30T08:18:32;7.35;;;4.40;;
55069;SDS011;40967;52.070;8.596;2024-01-30T08:20:58;7.32;;;4.72;;
55069;SDS011;40967;52.070;8.596;2024-01-30T08:23:34;8.20;;;5.38;;
55069;SDS011;40967;52.070;8.596;2024-01-30T08:26:07;7.82;;;4.70;;
55069;SDS011;40967;52.070;8.596;2024-01-30T08:28:33;7.50;;;4.65;;
55069;SDS011;40967;52.070;8.596;2024-01-30T08:31:00;8.73;;;5.32;;
55069;SDS011;40967;52.070;8.596;2024-01-30T08:33:26;7.18;;;4.57;;
55069;SDS011;40967;52.070;8.596;2024-01-30T08:35:53;8.00;;;4.70;;
55069;SDS011;40967;52.070;8.596;2024-01-30T08:38:22;8.55;;;4.63;;
55069;SDS011;40967;52.070;8.596;2024-01-30T08:40:56;7.72;;;4.80;;
55069;SDS011;40967;52.070;8.596;2024-01-30T08:43:23;8.55;;;5.00;;
55069;SDS011;40967;52.070;8.596;2024-01-30T08:45:50;8.27;;;5.10;;
55069;SDS011;40967;52.070;8.596;2024-01-30T08:48:16;7.90;;;5.10;;
55069;SDS011;40967;52.070;8.596;2024-01-30T08:50:43;8.85;;;5.35;;
55069;SDS011;40967;52.070;8.596;2024-01-30T08:53:10;8.32;;;5.10;;
55069;SDS011;40967;52.070;8.596;2024-01-30T08:55:36;8.23;;;5.00;;
55069;SDS011;40967;52.070;8.596;2024-01-30T08:58:05;7.82;;;4.82;;
55069;SDS011;40967;52.070;8.596;2024-01-30T09:00:33;8.00;;;4.80;;
55069;SDS011;40967;52.070;8.596;2024-01-30T09:02:59;7.97;;;4.93;;
55069;SDS011;40967;52.070;8.596;2024-01-30T09:05:26;7.10;;;4.60;;
55069;SDS011;40967;52.070;8.596;2024-01-30T09:07:52;7.32;;;4.80;;
55069;SDS011;40967;52.070;8.596;2024-01-30T09:10:27;8.00;;;4.97;;
55069;SDS011;40967;52.070;8.596;2024-01-30T09:12:53;8.03;;;4.77;;
55069;SDS011;40967;52.070;8.596;2024-01-30T09:15:25;8.18;;;4.85;;
55069;SDS011;40967;52.070;8.596;2024-01-30T09:17:51;7.80;;;4.80;;
55069;SDS011;40967;52.070;8.596;2024-01-30T09:20:17;8.25;;;5.07;;
55069;SDS011;40967;52.070;8.596;2024-01-30T09:22:54;7.22;;;4.75;;
55069;SDS011;40967;52.070;8.596;2024-01-30T09:25:20;7.97;;;4.75;;
55069;SDS011;40967;52.070;8.596;2024-01-30T09:27:47;7.30;;;4.70;;
55069;SDS011;40967;52.070;8.596;2024-01-30T09:30:24;7.57;;;4.80;;
55069;SDS011;40967;52.070;8.596;2024-01-30T09:32:54;7.20;;;4.65;;
55069;SDS011;40967;52.070;8.596;2024-01-30T09:35:21;7.93;;;4.43;;
55069;SDS011;40967;52.070;8.596;2024-01-30T09:38:03;7.60;;;4.82;;
55069;SDS011;40967;52.070;8.596;2024-01-30T09:40:51;7.68;;;4.63;;
55069;SDS011;40967;52.070;8.596;2024-01-30T09:43:23;6.60;;;4.32;;
55069;SDS011;40967;52.070;8.596;2024-01-30T09:45:51;6.30;;;4.00;;
55069;SDS011;40967;52.070;8.596;2024-01-30T09:48:20;7.03;;;4.28;;
55069;SDS011;40967;52.070;8.596;2024-01-30T09:51:08;6.25;;;3.88;;
55069;SDS011;40967;52.070;8.596;2024-01-30T09:53:55;6.30;;;3.88;;
55069;SDS011;40967;52.070;8.596;2024-01-30T09:56:24;6.65;;;4.07;;
55069;SDS011;40967;52.070;8.596;2024-01-30T09:58:52;7.40;;;4.35;;
55069;SDS011;40967;52.070;8.596;2024-01-30T10:01:20;6.80;;;4.25;;
55069;SDS011;40967;52.070;8.596;2024-01-30T10:03:49;6.70;;;4.00;;
55069;SDS011;40967;52.070;8.596;2024-01-30T10:06:19;6.45;;;4.20;;
55069;SDS011;40967;52.070;8.596;2024-01-30T10:08:51;7.63;;;4.05;;
55069;SDS011;40967;52.070;8.596;2024-01-30T10:11:19;6.72;;;3.78;;
55069;SDS011;40967;52.070;8.596;2024-01-30T10:13:46;6.50;;;3.30;;
55069;SDS011;40967;52.070;8.596;2024-01-30T10:16:47;6.00;;;3.65;;
55069;SDS011;40967;52.070;8.596;2024-01-30T10:19:13;5.13;;;3.05;;
55069;SDS011;40967;52.070;8.596;2024-01-30T10:21:40;5.90;;;3.60;;
55069;SDS011;40967;52.070;8.596;2024-01-30T10:24:08;6.70;;;3.90;;
55069;SDS011;40967;52.070;8.596;2024-01-30T10:26:39;6.45;;;3.63;;
55069;SDS011;40967;52.070;8.596;2024-01-30T10:29:10;11.50;;;6.82;;
55069;SDS011;40967;52.070;8.596;2024-01-30T10:31:36;36.10;;;21.50;;
55069;SDS011;40967;52.070;8.596;2024-01-30T10:34:07;40.92;;;23.95;;
55069;SDS011;40967;52.070;8.596;2024-01-30T10:37:06;39.22;;;23.88;;
55069;SDS011;40967;52.070;8.596;2024-01-30T10:39:37;31.25;;;18.73;;
55069;SDS011;40967;52.070;8.596;2024-01-30T10:42:05;19.23;;;12.07;;
55069;SDS011;40967;52.070;8.596;2024-01-30T10:44:47;15.13;;;9.13;;
55069;SDS011;40967;52.070;8.596;2024-01-30T10:47:25;10.95;;;6.28;;
55069;SDS011;40967;52.070;8.596;2024-01-30T10:49:56;10.48;;;5.78;;
55069;SDS011;40967;52.070;8.596;2024-01-30T10:52:45;11.05;;;7.00;;
55069;SDS011;40967;52.070;8.596;2024-01-30T10:55:35;10.27;;;6.30;;
55069;SDS011;40967;52.070;8.596;2024-01-30T10:58:07;7.85;;;5.15;;
55069;SDS011;40967;52.070;8.596;2024-01-30T11:00:37;7.17;;;4.37;;
55069;SDS011;40967;52.070;8.596;2024-01-30T11:03:24;9.93;;;4.22;;
55069;SDS011;40967;52.070;8.596;2024-01-30T11:06:03;6.32;;;3.40;;
55069;SDS011;40967;52.070;8.596;2024-01-30T11:09:10;6.40;;;3.60;;
55069;SDS011;40967;52.070;8.596;2024-01-30T11:12:29;7.95;;;4.03;;
55069;SDS011;40967;52.070;8.596;2024-01-30T11:17:54;6.70;;;3.28;;
55069;SDS011;40967;52.070;8.596;2024-01-30T11:20:24;5.82;;;3.20;;
55069;SDS011;40967;52.070;8.596;2024-01-30T11:22:59;5.45;;;3.13;;
55069;SDS011;40967;52.070;8.596;2024-01-30T11:25:32;6.13;;;3.30;;
55069;SDS011;40967;52.070;8.596;2024-01-30T11:28:02;7.05;;;3.60;;
55069;SDS011;40967;52.070;8.596;2024-01-30T11:31:12;6.13;;;3.40;;
55069;SDS011;40967;52.070;8.596;2024-01-30T11:34:25;6.45;;;3.17;;
55069;SDS011;40967;52.070;8.596;2024-01-30T11:40:12;6.68;;;3.83;;
55069;SDS011;40967;52.070;8.596;2024-01-30T11:43:15;6.93;;;3.75;;
55069;SDS011;40967;52.070;8.596;2024-01-30T11:45:58;7.05;;;3.92;;
55069;SDS011;40967;52.070;8.596;2024-01-30T11:48:59;5.85;;;3.22;;
55069;SDS011;40967;52.070;8.596;2024-01-30T11:54:33;6.68;;;3.70;;
55069;SDS011;40967;52.070;8.596;2024-01-30T11:57:04;8.13;;;4.27;;
55069;SDS011;40967;52.070;8.596;2024-01-30T11:59:38;7.68;;;4.38;;
55069;SDS011;40967;52.070;8.596;2024-01-30T12:03:34;6.05;;;3.40;;
55069;SDS011;40967;52.070;8.596;2024-01-30T12:05:35;7.97;;;4.38;;
55069;SDS011;40967;52.070;8.596;2024-01-30T12:08:07;8.10;;;4.50;;
55069;SDS011;40967;52.070;8.596;2024-01-30T12:13:45;11.55;;;5.50;;
55069;SDS011;40967;52.070;8.596;2024-01-30T12:16:12;8.25;;;4.63;;
55069;SDS011;40967;52.070;8.596;2024-01-30T12:18:39;7.88;;;4.40;;
55069;SDS011;40967;52.070;8.596;2024-01-30T12:21:22;7.20;;;3.70;;
55069;SDS011;40967;52.070;8.596;2024-01-30T12:24:32;5.60;;;3.40;;
55069;SDS011;40967;52.070;8.596;2024-01-30T12:27:03;6.57;;;3.60;;
55069;SDS011;40967;52.070;8.596;2024-01-30T12:32:40;6.88;;;3.55;;
55069;SDS011;40967;52.070;8.596;2024-01-30T12:35:13;6.47;;;3.30;;
55069;SDS011;40967;52.070;8.596;2024-01-30T12:37:47;5.65;;;3.00;;
55069;SDS011;40967;52.070;8.596;2024-01-30T12:40:35;5.20;;;2.90;;
55069;SDS011;40967;52.070;8.596;2024-01-30T12:43:07;6.07;;;3.28;;
55069;SDS011;40967;52.070;8.596;2024-01-30T12:45:42;6.70;;;4.00;;
55069;SDS011;40967;52.070;8.596;2024-01-30T12:48:10;5.53;;;2.95;;
55069;SDS011;40967;52.070;8.596;2024-01-30T12:53:24;5.68;;;3.03;;
55069;SDS011;40967;52.070;8.596;2024-01-30T12:54:08;4.68;;;2.75;;
55069;SDS011;40967;52.070;8.596;2024-01-30T12:56:58;5.63;;;2.83;;
55069;SDS011;40967;52.070;8.596;2024-01-30T12:59:35;4.72;;;2.42;;
55069;SDS011;40967;52.070;8.596;2024-01-30T13:02:12;6.75;;;3.45;;
55069;SDS011;40967;52.070;8.596;2024-01-30T13:04:47;5.75;;;2.75;;
55069;SDS011;40967;52.070;8.596;2024-01-30T13:07:20;5.53;;;2.80;;
55069;SDS011;40967;52.070;8.596;2024-01-30T13:09:49;5.30;;;2.92;;
55069;SDS011;40967;52.070;8.596;2024-01-30T13:12:27;5.88;;;3.20;;
55069;SDS011;40967;52.070;8.596;2024-01-30T13:14:54;5.37;;;3.20;;
55069;SDS011;40967;52.070;8.596;2024-01-30T13:17:25;5.65;;;3.03;;
55069;SDS011;40967;52.070;8.596;2024-01-30T13:19:52;6.88;;;3.45;;
55069;SDS011;40967;52.070;8.596;2024-01-30T13:22:51;5.77;;;3.40;;
55069;SDS011;40967;52.070;8.596;2024-01-30T13:25:22;6.70;;;3.95;;
55069;SDS011;40967;52.070;8.596;2024-01-30T13:27:51;6.30;;;3.58;;
55069;SDS011;40967;52.070;8.596;2024-01-30T13:30:17;6.10;;;3.30;;
55069;SDS011;40967;52.070;8.596;2024-01-30T13:32:46;5.00;;;2.90;;
55069;SDS011;40967;52.070;8.596;2024-01-30T13:35:12;5.28;;;3.03;;
55069;SDS011;40967;52.070;8.596;2024-01-30T13:37:39;7.22;;;4.05;;
55069;SDS011;40967;52.070;8.596;2024-01-30T13:40:07;5.68;;;3.30;;
55069;SDS011;40967;52.070;8.596;2024-01-30T13:42:45;5.82;;;2.70;;
55069;SDS011;40967;52.070;8.596;2024-01-30T13:45:18;6.53;;;3.60;;
55069;SDS011;40967;52.070;8.596;2024-01-30T13:47:49;6.43;;;3.17;;
55069;SDS011;40967;52.070;8.596;2024-01-30T13:50:26;5.15;;;2.75;;
55069;SDS011;40967;52.070;8.596;2024-01-30T13:52:52;6.28;;;3.53;;
55069;SDS011;40967;52.070;8.596;2024-01-30T13:55:22;4.90;;;2.88;;
55069;SDS011;40967;52.070;8.596;2024-01-30T13:57:50;6.00;;;3.53;;
55069;SDS011;40967;52.070;8.596;2024-01-30T14:02:01;5.50;;;2.83;;
55069;SDS011;40967;52.070;8.596;2024-01-30T14:04:04;7.13;;;4.13;;
55069;SDS011;40967;52.070;8.596;2024-01-30T14:06:33;6.07;;;3.42;;
55069;SDS011;40967;52.070;8.596;2024-01-30T14:09:31;5.93;;;3.50;;
55069;SDS011;40967;52.070;8.596;2024-01-30T14:12:02;7.37;;;4.17;;
55069;SDS011;40967;52.070;8.596;2024-01-30T14:14:29;6.97;;;3.40;;
55069;SDS011;40967;52.070;8.596;2024-01-30T14:16:55;13.48;;;5.90;;
55069;SDS011;40967;52.070;8.596;2024-01-30T14:19:23;6.43;;;3.70;;
55069;SDS011;40967;52.070;8.596;2024-01-30T14:21:49;7.43;;;4.18;;
55069;SDS011;40967;52.070;8.596;2024-01-30T14:24:30;6.88;;;4.05;;
55069;SDS011;40967;52.070;8.596;2024-01-30T14:26:56;7.13;;;4.03;;
55069;SDS011;40967;52.070;8.596;2024-01-30T14:29:24;8.88;;;4.40;;
55069;SDS011;40967;52.070;8.596;2024-01-30T14:31:53;7.03;;;3.75;;
55069;SDS011;40967;52.070;8.596;2024-01-30T14:34:21;7.15;;;4.28;;
55069;SDS011;40967;52.070;8.596;2024-01-30T14:36:52;9.57;;;5.97;;
55069;SDS011;40967;52.070;8.596;2024-01-30T14:39:20;12.13;;;6.82;;
55069;SDS011;40967;52.070;8.596;2024-01-30T14:41:55;10.30;;;6.03;;
55069;SDS011;40967;52.070;8.596;2024-01-30T14:44:22;11.32;;;6.15;;
55069;SDS011;40967;52.070;8.596;2024-01-30T14:46:50;10.23;;;6.20;;
55069;SDS011;40967;52.070;8.596;2024-01-30T14:49:17;9.10;;;5.90;;
55069;SDS011;40967;52.070;8.596;2024-01-30T14:52:02;8.43;;;5.13;;
55069;SDS011;40967;52.070;8.596;2024-01-30T14:54:58;7.57;;;4.63;;
55069;SDS011;40967;52.070;8.596;2024-01-30T14:57:25;7.05;;;4.30;;
55069;SDS011;40967;52.070;8.596;2024-01-30T14:59:51;7.95;;;4.55;;
55069;SDS011;40967;52.070;8.596;2024-01-30T15:02:18;7.70;;;4.00;;
55069;SDS011;40967;52.070;8.596;2024-01-30T15:04:57;7.45;;;3.88;;
55069;SDS011;40967;52.070;8.596;2024-01-30T15:07:27;8.70;;;4.70;;
55069;SDS011;40967;52.070;8.596;2024-01-30T15:09:58;7.07;;;4.43;;
55069;SDS011;40967;52.070;8.596;2024-01-30T15:12:27;9.10;;;5.00;;
55069;SDS011;40967;52.070;8.596;2024-01-30T15:15:06;9.33;;;5.10;;
55069;SDS011;40967;52.070;8.596;2024-01-30T15:18:02;7.90;;;5.10;;
55069;SDS011;40967;52.070;8.596;2024-01-30T15:20:29;9.82;;;5.55;;
55069;SDS011;40967;52.070;8.596;2024-01-30T15:22:56;8.77;;;4.70;;